Главная страница
METAR-TAF:

METAR-TAF

Аэропорты :

Ангун

Angoon, Аляска, США

широта: 57-30N, долгота: 134-35W, высота над уровнем моря: 0 м

Текущие метеонаблюдения

Эта сводка был подготовлена 11 минут назад, в 22:56 UTC
Ветер 12 Узел от восточно-северо-восточный с порывами до 16 Узел
Температура 4°C
Влажность 93%
Давление 985 hPa
Видимость: 16.1 км
Рассеянная облачность на высоте 4000 фута
Сплошная облачность на высоте 6000 фута
небольшой дождь

METAR: PAGN 162256Z AUTO 07012G16KT 10SM -RA BKN040 OVC060 04/03 A2910 RMK AO2 SLP844 P0000 T00440028

Время: 14:07 (23:07 UTC)


TAF: отсутствует

Метеонаблюдения и прогнозы для более 4000 аэропортов (сводки METAR и TAF).

Имеющиеся станции представлены на карте желтыми и красными точками.

Чтобы увидеть название станции, наведите на нее мышь.

Затем щелкните, чтобы увидеть метеонаблюдения и метеопрогнозы.

Управление картой: чтобы увеличить масштаб, щелкните зеленые кнопки с черным крестиком; чтобы уменьшить масштаб, щелкните зеленую кнопку с тире; для просмотра соседних карт щелкайте зеленые стрелки.


METAR-TAF: